Carp Lake, MI (49718)

5:36 PM EDT on August 27, 2015 (GMT -0400)
North Levering MI | | Change Station
CLOSE
Current Station
Personal Weather Station
Location: Levering, MI
Elevation: 741 ft
Nearby Weather Stations

Elev 741 ft 45.67 °N, 84.79 °W | Updated 18 seconds ago

Partly Cloudy
Partly Cloudy
70.9 °F
Feels Like 75 °F
N
3.6
Wind Variable Wind from SW
Gusts 6.0 mph

Today
High -- | Low -- °F
--% Chance of Precip.
Yesterday
High -- | Low -- °F
Precip. -- in
6:53 AM 8:26 PM
Waxing Gibbous, 95% visible
Pressure 30.13 in
Visibility 10.0 miles
Clouds Overcast 4200 ft
Heat Index 75 °F
Dew Point 58 °F
Humidity 65%
Rainfall 0.00 in
Snow Depth Not available.
UV 1 out of 12
Pollen 9.20 out of 12
Air Quality Not available.
Flu Activity Not available.
METAR KPLN 272054Z AUTO 23007KT 10SM OVC042 22/12 A3013 RMK AO2 SLP202 T02170117 56011
Pressure 30.13 in
Visibility 10.0 miles
Clouds Overcast 4200 ft
Heat Index 75 °F
Dew Point 58 °F
Humidity 65%
Rainfall 0.00 in
Snow Depth Not available.
UV 1 out of 12
Pollen 9.20 out of 12
Air Quality Not available.
Flu Activity Not available.
METAR KPLN 272054Z AUTO 23007KT 10SM OVC042 22/12 A3013 RMK AO2 SLP202 T02170117 56011
Nowcast | as of 5:00 PM EDT on August 27, 2015

At 6 PM...mostly clear. Temperature 66. Northwest winds 7 mph. At 8 PM...mostly clear. Temperature 62. Light winds. At 10 PM...mostly clear. Temperature 58. Light winds. At 12 am...mostly clear. Temperature 58. Light winds.

×

10-Day Weather Forecast

×

Almanac

Astronomy

Aug. 27, 2015 Rise Set
Actual Time
Civil Twilight
Nautical Twilight
Astronomical Twilight
Moon
Length of Visible Light
Length of Day
Tomorrow will be .
, % of the Moon is Illuminated

Today's Extremes

State Highs State Lows

Community

WunderPhotos

Upload Photos

1,850,236 photos uploaded!

WunderBlogs® & News

Nearby

Air Quality

  Air Quality AQ Index Pollutant
Not available.

Snow Depth

Station Depth Elevation

Earthquake Activity

City Distance Mag. Time & Date
Minimum magnitude displayed is 2.5.

Coastal Water Temperatures

Place Temperature

Stations

Nearby Weather Stations

Station Location Temp. Windchill Dew Point Humidity Wind Precip. Elev Updated Type